This is the latest recevied weather packets stored in our database for station/object K5MGY. If no packets are shown the sender has not sent any weather packets the latest 10 day(s).
| Time | Temp. | Humidity | Pressure | Rain* | Wind** | Luminosity | Snow |
|---|---|---|---|---|---|---|---|
| 1777908929 | 22.78° C | 58% | 1037.1 hPa | 0 mm | - | 512 W/m² | - |
| 1777908627 | 22.78° C | 59% | 1037.2 hPa | 0 mm | - | 494 W/m² | - |
| 1777908323 | 22.22° C | 62% | 1037.4 hPa | 0 mm | - | 488 W/m² | - |
| 1777908020 | 22.22° C | 61% | 1037.3 hPa | 0 mm | - | 449 W/m² | - |
| 1777907715 | 22.22° C | 62% | 1037.4 hPa | 0 mm | - | 259 W/m² | - |
| 1777907410 | 21.67° C | 63% | 1037.2 hPa | 0 mm | - | 132 W/m² | - |
| 1777907108 | 21.67° C | 63% | 1037.7 hPa | 0 mm | - | 418 W/m² | - |
| 1777906805 | 21.11° C | 65% | 1037.6 hPa | 0 mm | - | 109 W/m² | - |
| 1777906503 | 21.11° C | 65% | 1037.6 hPa | 0 mm | - | 158 W/m² | - |
| 1777906198 | 20.56° C | 65% | 1037.5 hPa | 0 mm | - | 89 W/m² | - |
| 1777905895 | 20.56° C | 65% | 1037.6 hPa | 0 mm | - | 171 W/m² | - |
| 1777905592 | 20.56° C | 66% | 1037.6 hPa | 0 mm | - | 230 W/m² | - |
| 1777905288 | 20.56° C | 67% | 1037.7 hPa | 0 mm | - | 153 W/m² | - |
| 1777904986 | 20° C | 67% | 1037.8 hPa | 0 mm | - | 191 W/m² | - |
| 1777904683 | 20° C | 68% | 1037.7 hPa | 0 mm | - | 69 W/m² | - |
| 1777904380 | 19.44° C | 68% | 1037.8 hPa | 0 mm | - | 60 W/m² | - |
| 1777904077 | 19.44° C | 69% | 1037.6 hPa | 0 mm | - | 64 W/m² | - |
| 1777903773 | 19.44° C | 69% | 1037.8 hPa | 0 mm | - | 79 W/m² | - |
| 1777903470 | 19.44° C | 69% | 1037.9 hPa | 0 mm | - | 43 W/m² | - |
| 1777903166 | 18.89° C | 70% | 1037.8 hPa | 0 mm | - | 44 W/m² | - |
| 1777902862 | 18.89° C | 70% | 1037.9 hPa | 0 mm | - | 41 W/m² | - |
| 1777902560 | 18.33° C | 71% | 1037.9 hPa | 0 mm | - | 66 W/m² | - |
| 1777902257 | 18.33° C | 72% | 1038 hPa | 0 mm | - | 131 W/m² | - |
| 1777901955 | 18.33° C | 72% | 1038 hPa | 0 mm | - | 85 W/m² | - |
| 1777901652 | 17.78° C | 73% | 1037.7 hPa | 0 mm | - | 67 W/m² | - |
* Rain latest hour (hover to see other rain measurements)
** Current wind speed in m/s (hover to see current wind gust speed)